sensor_id;sensor_type;location;lat;lon;timestamp;P1;durP1;ratioP1;P2;durP2;ratioP2
49241;SDS011;35079;52.704;13.814;2022-12-18T00:01:47;33.63;;;14.88;;
49241;SDS011;35079;52.704;13.814;2022-12-18T00:04:23;37.10;;;15.90;;
49241;SDS011;35079;52.704;13.814;2022-12-18T00:06:49;46.63;;;17.83;;
49241;SDS011;35079;52.704;13.814;2022-12-18T00:09:15;42.00;;;17.02;;
49241;SDS011;35079;52.704;13.814;2022-12-18T00:11:41;40.05;;;16.65;;
49241;SDS011;35079;52.704;13.814;2022-12-18T00:14:08;49.42;;;18.50;;
49241;SDS011;35079;52.704;13.814;2022-12-18T00:16:35;41.72;;;16.40;;
49241;SDS011;35079;52.704;13.814;2022-12-18T00:19:02;35.88;;;16.48;;
49241;SDS011;35079;52.704;13.814;2022-12-18T00:21:29;38.50;;;17.02;;
49241;SDS011;35079;52.704;13.814;2022-12-18T00:23:56;35.08;;;14.88;;
49241;SDS011;35079;52.704;13.814;2022-12-18T00:26:23;40.90;;;16.55;;
49241;SDS011;35079;52.704;13.814;2022-12-18T00:28:58;39.03;;;15.48;;
49241;SDS011;35079;52.704;13.814;2022-12-18T00:31:25;39.33;;;15.98;;
49241;SDS011;35079;52.704;13.814;2022-12-18T00:33:50;40.63;;;16.80;;
49241;SDS011;35079;52.704;13.814;2022-12-18T00:36:21;43.50;;;17.42;;
49241;SDS011;35079;52.704;13.814;2022-12-18T00:38:48;46.90;;;19.10;;
49241;SDS011;35079;52.704;13.814;2022-12-18T00:41:14;41.42;;;17.10;;
49241;SDS011;35079;52.704;13.814;2022-12-18T00:44:01;53.13;;;19.45;;
49241;SDS011;35079;52.704;13.814;2022-12-18T00:46:28;59.03;;;19.77;;
49241;SDS011;35079;52.704;13.814;2022-12-18T00:48:54;44.70;;;17.92;;
49241;SDS011;35079;52.704;13.814;2022-12-18T00:51:19;38.35;;;16.02;;
49241;SDS011;35079;52.704;13.814;2022-12-18T00:53:45;44.08;;;18.60;;
49241;SDS011;35079;52.704;13.814;2022-12-18T00:56:11;41.72;;;16.85;;
49241;SDS011;35079;52.704;13.814;2022-12-18T00:58:37;47.95;;;17.75;;
49241;SDS011;35079;52.704;13.814;2022-12-18T01:01:06;41.55;;;17.48;;
49241;SDS011;35079;52.704;13.814;2022-12-18T01:03:32;49.83;;;18.85;;
49241;SDS011;35079;52.704;13.814;2022-12-18T01:05:57;41.03;;;16.42;;
49241;SDS011;35079;52.704;13.814;2022-12-18T01:08:23;42.58;;;17.15;;
49241;SDS011;35079;52.704;13.814;2022-12-18T01:10:51;44.28;;;16.02;;
49241;SDS011;35079;52.704;13.814;2022-12-18T01:13:16;38.65;;;15.55;;
49241;SDS011;35079;52.704;13.814;2022-12-18T01:15:49;39.80;;;14.52;;
49241;SDS011;35079;52.704;13.814;2022-12-18T01:18:15;36.72;;;15.13;;
49241;SDS011;35079;52.704;13.814;2022-12-18T01:20:41;38.88;;;16.10;;
49241;SDS011;35079;52.704;13.814;2022-12-18T01:23:06;45.15;;;16.02;;
49241;SDS011;35079;52.704;13.814;2022-12-18T01:25:32;49.53;;;17.13;;
49241;SDS011;35079;52.704;13.814;2022-12-18T01:27:58;51.38;;;18.35;;
49241;SDS011;35079;52.704;13.814;2022-12-18T01:30:24;47.03;;;18.27;;
49241;SDS011;35079;52.704;13.814;2022-12-18T01:32:49;53.47;;;19.15;;
49241;SDS011;35079;52.704;13.814;2022-12-18T01:35:15;50.60;;;18.17;;
49241;SDS011;35079;52.704;13.814;2022-12-18T01:37:40;51.40;;;18.02;;
49241;SDS011;35079;52.704;13.814;2022-12-18T01:40:06;51.75;;;17.23;;
49241;SDS011;35079;52.704;13.814;2022-12-18T01:42:32;44.75;;;16.63;;
49241;SDS011;35079;52.704;13.814;2022-12-18T01:47:33;46.33;;;16.23;;
49241;SDS011;35079;52.704;13.814;2022-12-18T01:50:07;53.28;;;20.00;;
49241;SDS011;35079;52.704;13.814;2022-12-18T01:52:38;58.63;;;20.55;;
49241;SDS011;35079;52.704;13.814;2022-12-18T01:55:11;58.35;;;19.50;;
49241;SDS011;35079;52.704;13.814;2022-12-18T01:57:39;53.67;;;20.02;;
49241;SDS011;35079;52.704;13.814;2022-12-18T02:00:07;58.15;;;19.70;;
49241;SDS011;35079;52.704;13.814;2022-12-18T02:02:36;68.97;;;23.05;;
49241;SDS011;35079;52.704;13.814;2022-12-18T02:05:02;70.22;;;22.13;;
49241;SDS011;35079;52.704;13.814;2022-12-18T02:07:32;57.72;;;19.50;;
49241;SDS011;35079;52.704;13.814;2022-12-18T02:10:24;65.53;;;22.08;;
49241;SDS011;35079;52.704;13.814;2022-12-18T02:18:38;72.28;;;23.17;;
49241;SDS011;35079;52.704;13.814;2022-12-18T02:21:13;78.18;;;25.60;;
49241;SDS011;35079;52.704;13.814;2022-12-18T02:24:04;68.47;;;21.45;;
49241;SDS011;35079;52.704;13.814;2022-12-18T02:26:48;60.83;;;21.08;;
49241;SDS011;35079;52.704;13.814;2022-12-18T02:29:20;60.03;;;18.33;;
49241;SDS011;35079;52.704;13.814;2022-12-18T02:31:59;53.83;;;18.20;;
49241;SDS011;35079;52.704;13.814;2022-12-18T02:34:28;54.58;;;18.25;;
49241;SDS011;35079;52.704;13.814;2022-12-18T02:36:56;51.45;;;19.70;;
49241;SDS011;35079;52.704;13.814;2022-12-18T02:39:25;55.42;;;18.05;;
49241;SDS011;35079;52.704;13.814;2022-12-18T02:41:52;55.80;;;18.90;;
49241;SDS011;35079;52.704;13.814;2022-12-18T02:44:18;55.58;;;20.08;;
49241;SDS011;35079;52.704;13.814;2022-12-18T02:46:50;52.00;;;19.48;;
49241;SDS011;35079;52.704;13.814;2022-12-18T02:49:24;55.40;;;18.83;;
49241;SDS011;35079;52.704;13.814;2022-12-18T02:55:27;57.35;;;20.25;;
49241;SDS011;35079;52.704;13.814;2022-12-18T02:57:40;54.22;;;19.95;;
49241;SDS011;35079;52.704;13.814;2022-12-18T03:01:03;44.15;;;16.20;;
49241;SDS011;35079;52.704;13.814;2022-12-18T03:03:31;48.40;;;16.52;;
49241;SDS011;35079;52.704;13.814;2022-12-18T03:09:02;47.80;;;17.05;;
49241;SDS011;35079;52.704;13.814;2022-12-18T03:11:34;43.10;;;16.27;;
49241;SDS011;35079;52.704;13.814;2022-12-18T03:14:23;37.13;;;14.98;;
49241;SDS011;35079;52.704;13.814;2022-12-18T03:16:52;37.13;;;14.55;;
49241;SDS011;35079;52.704;13.814;2022-12-18T03:19:21;39.85;;;15.70;;
49241;SDS011;35079;52.704;13.814;2022-12-18T03:21:51;34.25;;;13.07;;
49241;SDS011;35079;52.704;13.814;2022-12-18T03:24:20;48.15;;;18.05;;
49241;SDS011;35079;52.704;13.814;2022-12-18T03:26:49;44.53;;;16.83;;
49241;SDS011;35079;52.704;13.814;2022-12-18T03:29:22;34.42;;;14.60;;
49241;SDS011;35079;52.704;13.814;2022-12-18T03:31:53;36.88;;;14.95;;
49241;SDS011;35079;52.704;13.814;2022-12-18T03:34:24;33.17;;;13.60;;
49241;SDS011;35079;52.704;13.814;2022-12-18T03:36:57;29.75;;;13.10;;
49241;SDS011;35079;52.704;13.814;2022-12-18T03:39:23;33.78;;;14.10;;
49241;SDS011;35079;52.704;13.814;2022-12-18T03:42:10;36.20;;;14.77;;
49241;SDS011;35079;52.704;13.814;2022-12-18T03:44:54;31.48;;;13.77;;
49241;SDS011;35079;52.704;13.814;2022-12-18T03:50:11;41.47;;;14.45;;
49241;SDS011;35079;52.704;13.814;2022-12-18T03:52:45;32.65;;;14.18;;
49241;SDS011;35079;52.704;13.814;2022-12-18T03:55:23;35.83;;;14.30;;
49241;SDS011;35079;52.704;13.814;2022-12-18T03:57:50;38.80;;;14.73;;
49241;SDS011;35079;52.704;13.814;2022-12-18T04:00:18;34.00;;;13.93;;
49241;SDS011;35079;52.704;13.814;2022-12-18T04:02:46;36.78;;;13.80;;
49241;SDS011;35079;52.704;13.814;2022-12-18T04:05:17;36.05;;;13.80;;
49241;SDS011;35079;52.704;13.814;2022-12-18T04:07:45;33.42;;;13.93;;
49241;SDS011;35079;52.704;13.814;2022-12-18T04:10:12;34.40;;;13.38;;
49241;SDS011;35079;52.704;13.814;2022-12-18T04:12:41;31.75;;;13.85;;
49241;SDS011;35079;52.704;13.814;2022-12-18T04:15:07;32.22;;;13.30;;
49241;SDS011;35079;52.704;13.814;2022-12-18T04:17:33;31.83;;;12.85;;
49241;SDS011;35079;52.704;13.814;2022-12-18T04:19:59;34.53;;;13.10;;
49241;SDS011;35079;52.704;13.814;2022-12-18T04:22:25;36.33;;;14.82;;
49241;SDS011;35079;52.704;13.814;2022-12-18T04:24:51;35.65;;;14.57;;
49241;SDS011;35079;52.704;13.814;2022-12-18T04:27:17;30.10;;;13.73;;
49241;SDS011;35079;52.704;13.814;2022-12-18T04:29:43;32.90;;;12.93;;
49241;SDS011;35079;52.704;13.814;2022-12-18T04:32:08;37.70;;;14.70;;
49241;SDS011;35079;52.704;13.814;2022-12-18T04:34:34;36.60;;;13.38;;
49241;SDS011;35079;52.704;13.814;2022-12-18T04:37:00;37.75;;;13.95;;
49241;SDS011;35079;52.704;13.814;2022-12-18T04:39:25;38.00;;;14.18;;
49241;SDS011;35079;52.704;13.814;2022-12-18T04:41:51;37.78;;;14.63;;
49241;SDS011;35079;52.704;13.814;2022-12-18T04:44:17;39.45;;;13.77;;
49241;SDS011;35079;52.704;13.814;2022-12-18T04:46:42;29.92;;;12.98;;
49241;SDS011;35079;52.704;13.814;2022-12-18T04:49:08;36.60;;;14.43;;
49241;SDS011;35079;52.704;13.814;2022-12-18T04:51:35;35.65;;;14.43;;
49241;SDS011;35079;52.704;13.814;2022-12-18T04:54:01;39.53;;;14.90;;
49241;SDS011;35079;52.704;13.814;2022-12-18T04:56:27;34.90;;;13.07;;
49241;SDS011;35079;52.704;13.814;2022-12-18T04:58:53;32.72;;;13.32;;
49241;SDS011;35079;52.704;13.814;2022-12-18T05:01:18;31.48;;;12.20;;
49241;SDS011;35079;52.704;13.814;2022-12-18T05:03:44;31.90;;;12.48;;
49241;SDS011;35079;52.704;13.814;2022-12-18T05:06:10;36.03;;;12.90;;
49241;SDS011;35079;52.704;13.814;2022-12-18T05:08:36;33.03;;;13.00;;
49241;SDS011;35079;52.704;13.814;2022-12-18T05:11:02;30.77;;;11.88;;
49241;SDS011;35079;52.704;13.814;2022-12-18T05:13:30;33.13;;;12.20;;
49241;SDS011;35079;52.704;13.814;2022-12-18T05:15:56;30.20;;;12.15;;
49241;SDS011;35079;52.704;13.814;2022-12-18T05:18:22;34.05;;;13.23;;
49241;SDS011;35079;52.704;13.814;2022-12-18T05:20:49;33.92;;;14.15;;
49241;SDS011;35079;52.704;13.814;2022-12-18T05:23:15;37.33;;;14.60;;
49241;SDS011;35079;52.704;13.814;2022-12-18T05:25:41;40.50;;;15.15;;
49241;SDS011;35079;52.704;13.814;2022-12-18T05:28:07;39.00;;;14.75;;
49241;SDS011;35079;52.704;13.814;2022-12-18T05:30:33;34.15;;;12.70;;
49241;SDS011;35079;52.704;13.814;2022-12-18T05:32:59;32.28;;;12.55;;
49241;SDS011;35079;52.704;13.814;2022-12-18T05:35:25;35.53;;;15.00;;
49241;SDS011;35079;52.704;13.814;2022-12-18T05:37:51;37.67;;;14.57;;
49241;SDS011;35079;52.704;13.814;2022-12-18T05:40:16;35.70;;;13.23;;
49241;SDS011;35079;52.704;13.814;2022-12-18T05:42:42;31.77;;;12.93;;
49241;SDS011;35079;52.704;13.814;2022-12-18T05:45:08;37.80;;;14.75;;
49241;SDS011;35079;52.704;13.814;2022-12-18T05:47:34;40.65;;;14.90;;
49241;SDS011;35079;52.704;13.814;2022-12-18T05:49:59;36.15;;;13.60;;
49241;SDS011;35079;52.704;13.814;2022-12-18T05:52:25;34.60;;;14.05;;
49241;SDS011;35079;52.704;13.814;2022-12-18T05:54:51;39.70;;;15.55;;
49241;SDS011;35079;52.704;13.814;2022-12-18T05:57:16;41.20;;;15.25;;
49241;SDS011;35079;52.704;13.814;2022-12-18T05:59:42;39.65;;;13.93;;
49241;SDS011;35079;52.704;13.814;2022-12-18T06:02:08;41.20;;;15.43;;
49241;SDS011;35079;52.704;13.814;2022-12-18T06:04:33;38.33;;;14.20;;
49241;SDS011;35079;52.704;13.814;2022-12-18T06:06:59;36.17;;;14.05;;
49241;SDS011;35079;52.704;13.814;2022-12-18T06:09:24;36.97;;;13.70;;
49241;SDS011;35079;52.704;13.814;2022-12-18T06:11:51;33.80;;;12.85;;
49241;SDS011;35079;52.704;13.814;2022-12-18T06:14:17;42.60;;;14.68;;
49241;SDS011;35079;52.704;13.814;2022-12-18T06:16:42;36.83;;;14.00;;
49241;SDS011;35079;52.704;13.814;2022-12-18T06:19:13;35.85;;;13.13;;
49241;SDS011;35079;52.704;13.814;2022-12-18T06:21:40;40.78;;;14.15;;
49241;SDS011;35079;52.704;13.814;2022-12-18T06:24:06;38.15;;;14.18;;
49241;SDS011;35079;52.704;13.814;2022-12-18T06:26:32;33.53;;;13.02;;
49241;SDS011;35079;52.704;13.814;2022-12-18T06:28:58;32.15;;;13.10;;
49241;SDS011;35079;52.704;13.814;2022-12-18T06:31:24;39.58;;;14.10;;
49241;SDS011;35079;52.704;13.814;2022-12-18T06:33:53;38.80;;;14.57;;
49241;SDS011;35079;52.704;13.814;2022-12-18T06:36:19;40.08;;;14.18;;
49241;SDS011;35079;52.704;13.814;2022-12-18T06:38:45;43.47;;;15.70;;
49241;SDS011;35079;52.704;13.814;2022-12-18T06:41:12;43.10;;;14.40;;
49241;SDS011;35079;52.704;13.814;2022-12-18T06:43:39;39.15;;;15.20;;
49241;SDS011;35079;52.704;13.814;2022-12-18T06:46:05;45.72;;;15.60;;
49241;SDS011;35079;52.704;13.814;2022-12-18T06:48:31;39.88;;;14.65;;
49241;SDS011;35079;52.704;13.814;2022-12-18T06:50:57;36.08;;;14.43;;
49241;SDS011;35079;52.704;13.814;2022-12-18T06:53:23;39.88;;;14.88;;
49241;SDS011;35079;52.704;13.814;2022-12-18T06:55:49;37.28;;;15.52;;
49241;SDS011;35079;52.704;13.814;2022-12-18T06:58:14;39.40;;;14.52;;
49241;SDS011;35079;52.704;13.814;2022-12-18T07:00:40;32.72;;;12.95;;
49241;SDS011;35079;52.704;13.814;2022-12-18T07:03:06;35.63;;;13.25;;
49241;SDS011;35079;52.704;13.814;2022-12-18T07:05:32;32.80;;;12.27;;
49241;SDS011;35079;52.704;13.814;2022-12-18T07:07:59;30.58;;;12.65;;
49241;SDS011;35079;52.704;13.814;2022-12-18T07:10:25;34.55;;;13.02;;
49241;SDS011;35079;52.704;13.814;2022-12-18T07:12:51;34.53;;;12.18;;
49241;SDS011;35079;52.704;13.814;2022-12-18T07:15:16;35.60;;;14.15;;
49241;SDS011;35079;52.704;13.814;2022-12-18T07:17:42;38.25;;;13.85;;
49241;SDS011;35079;52.704;13.814;2022-12-18T07:20:08;34.03;;;13.63;;
49241;SDS011;35079;52.704;13.814;2022-12-18T07:22:34;38.75;;;13.35;;
49241;SDS011;35079;52.704;13.814;2022-12-18T07:24:59;36.47;;;13.50;;
49241;SDS011;35079;52.704;13.814;2022-12-18T07:27:25;38.95;;;13.52;;
49241;SDS011;35079;52.704;13.814;2022-12-18T07:29:51;32.88;;;13.00;;
49241;SDS011;35079;52.704;13.814;2022-12-18T07:32:16;33.45;;;12.80;;
49241;SDS011;35079;52.704;13.814;2022-12-18T07:34:42;34.08;;;12.57;;
49241;SDS011;35079;52.704;13.814;2022-12-18T07:37:07;38.63;;;13.85;;
49241;SDS011;35079;52.704;13.814;2022-12-18T07:39:33;33.10;;;12.43;;
49241;SDS011;35079;52.704;13.814;2022-12-18T07:41:59;36.28;;;14.25;;
49241;SDS011;35079;52.704;13.814;2022-12-18T07:44:43;37.00;;;14.27;;
49241;SDS011;35079;52.704;13.814;2022-12-18T07:47:08;40.03;;;14.15;;
49241;SDS011;35079;52.704;13.814;2022-12-18T07:49:34;36.40;;;15.13;;
49241;SDS011;35079;52.704;13.814;2022-12-18T07:52:00;41.45;;;15.50;;
49241;SDS011;35079;52.704;13.814;2022-12-18T07:54:26;37.22;;;15.07;;
49241;SDS011;35079;52.704;13.814;2022-12-18T07:56:52;46.70;;;18.33;;
49241;SDS011;35079;52.704;13.814;2022-12-18T07:59:18;41.10;;;16.83;;
49241;SDS011;35079;52.704;13.814;2022-12-18T08:01:46;38.78;;;15.55;;
49241;SDS011;35079;52.704;13.814;2022-12-18T08:04:11;34.92;;;13.90;;
49241;SDS011;35079;52.704;13.814;2022-12-18T08:06:37;40.60;;;16.27;;
49241;SDS011;35079;52.704;13.814;2022-12-18T08:09:03;36.47;;;15.00;;
49241;SDS011;35079;52.704;13.814;2022-12-18T08:11:28;30.40;;;12.80;;
49241;SDS011;35079;52.704;13.814;2022-12-18T08:13:54;32.28;;;12.93;;
49241;SDS011;35079;52.704;13.814;2022-12-18T08:16:21;37.05;;;14.25;;
49241;SDS011;35079;52.704;13.814;2022-12-18T08:18:47;34.15;;;13.85;;
49241;SDS011;35079;52.704;13.814;2022-12-18T08:21:20;38.80;;;13.70;;
49241;SDS011;35079;52.704;13.814;2022-12-18T08:23:48;36.08;;;13.50;;
49241;SDS011;35079;52.704;13.814;2022-12-18T08:26:14;36.70;;;13.18;;
49241;SDS011;35079;52.704;13.814;2022-12-18T08:28:40;34.35;;;12.80;;
49241;SDS011;35079;52.704;13.814;2022-12-18T08:31:07;29.63;;;12.00;;
49241;SDS011;35079;52.704;13.814;2022-12-18T08:33:33;41.50;;;15.98;;
49241;SDS011;35079;52.704;13.814;2022-12-18T08:36:01;33.42;;;13.18;;
49241;SDS011;35079;52.704;13.814;2022-12-18T08:38:27;37.85;;;13.98;;
49241;SDS011;35079;52.704;13.814;2022-12-18T08:40:59;38.97;;;14.07;;
49241;SDS011;35079;52.704;13.814;2022-12-18T08:43:26;37.47;;;12.93;;
49241;SDS011;35079;52.704;13.814;2022-12-18T08:46:11;38.20;;;13.77;;
49241;SDS011;35079;52.704;13.814;2022-12-18T08:48:37;39.55;;;14.18;;
49241;SDS011;35079;52.704;13.814;2022-12-18T08:51:02;32.83;;;13.13;;
49241;SDS011;35079;52.704;13.814;2022-12-18T08:53:28;33.42;;;12.85;;
49241;SDS011;35079;52.704;13.814;2022-12-18T08:55:55;37.17;;;13.02;;
49241;SDS011;35079;52.704;13.814;2022-12-18T08:58:21;39.92;;;14.32;;
49241;SDS011;35079;52.704;13.814;2022-12-18T09:00:47;35.03;;;14.30;;
49241;SDS011;35079;52.704;13.814;2022-12-18T09:03:13;39.30;;;15.82;;
49241;SDS011;35079;52.704;13.814;2022-12-18T09:05:40;40.35;;;15.82;;
49241;SDS011;35079;52.704;13.814;2022-12-18T09:08:05;38.95;;;13.77;;
49241;SDS011;35079;52.704;13.814;2022-12-18T09:10:31;38.35;;;14.30;;
49241;SDS011;35079;52.704;13.814;2022-12-18T09:12:57;40.30;;;14.90;;
49241;SDS011;35079;52.704;13.814;2022-12-18T09:15:23;35.17;;;14.48;;
49241;SDS011;35079;52.704;13.814;2022-12-18T09:17:48;36.42;;;14.35;;
49241;SDS011;35079;52.704;13.814;2022-12-18T09:20:15;40.95;;;14.27;;
49241;SDS011;35079;52.704;13.814;2022-12-18T09:22:41;41.42;;;14.55;;
49241;SDS011;35079;52.704;13.814;2022-12-18T09:25:07;43.50;;;15.77;;
49241;SDS011;35079;52.704;13.814;2022-12-18T09:27:33;41.00;;;16.35;;
49241;SDS011;35079;52.704;13.814;2022-12-18T09:29:59;51.00;;;17.55;;
49241;SDS011;35079;52.704;13.814;2022-12-18T09:32:25;41.78;;;16.35;;
49241;SDS011;35079;52.704;13.814;2022-12-18T09:34:51;43.88;;;15.52;;
49241;SDS011;35079;52.704;13.814;2022-12-18T09:37:16;40.25;;;15.07;;
49241;SDS011;35079;52.704;13.814;2022-12-18T09:39:42;42.38;;;15.27;;
49241;SDS011;35079;52.704;13.814;2022-12-18T09:42:26;40.88;;;15.02;;
49241;SDS011;35079;52.704;13.814;2022-12-18T09:44:52;31.10;;;11.57;;
49241;SDS011;35079;52.704;13.814;2022-12-18T09:47:25;45.17;;;15.45;;
49241;SDS011;35079;52.704;13.814;2022-12-18T09:49:59;41.97;;;14.57;;
49241;SDS011;35079;52.704;13.814;2022-12-18T09:52:35;40.85;;;14.93;;
49241;SDS011;35079;52.704;13.814;2022-12-18T09:55:24;39.17;;;14.95;;
49241;SDS011;35079;52.704;13.814;2022-12-18T09:57:53;43.60;;;16.35;;
49241;SDS011;35079;52.704;13.814;2022-12-18T10:00:22;41.20;;;14.88;;
49241;SDS011;35079;52.704;13.814;2022-12-18T10:02:50;42.35;;;15.23;;
49241;SDS011;35079;52.704;13.814;2022-12-18T10:05:29;43.80;;;15.18;;
49241;SDS011;35079;52.704;13.814;2022-12-18T10:08:13;44.00;;;15.48;;
49241;SDS011;35079;52.704;13.814;2022-12-18T10:10:49;34.93;;;14.20;;
49241;SDS011;35079;52.704;13.814;2022-12-18T10:13:39;38.35;;;13.98;;
49241;SDS011;35079;52.704;13.814;2022-12-18T10:16:19;35.03;;;13.63;;
49241;SDS011;35079;52.704;13.814;2022-12-18T10:19:08;44.00;;;15.52;;
49241;SDS011;35079;52.704;13.814;2022-12-18T10:21:40;39.88;;;14.68;;
49241;SDS011;35079;52.704;13.814;2022-12-18T10:24:36;38.05;;;13.77;;
49241;SDS011;35079;52.704;13.814;2022-12-18T10:27:15;41.20;;;13.40;;
49241;SDS011;35079;52.704;13.814;2022-12-18T10:29:42;34.38;;;13.52;;
49241;SDS011;35079;52.704;13.814;2022-12-18T10:32:13;43.38;;;15.32;;
49241;SDS011;35079;52.704;13.814;2022-12-18T10:34:47;34.13;;;13.65;;
49241;SDS011;35079;52.704;13.814;2022-12-18T10:37:17;35.97;;;13.45;;
49241;SDS011;35079;52.704;13.814;2022-12-18T10:40:06;34.70;;;13.95;;
49241;SDS011;35079;52.704;13.814;2022-12-18T10:42:40;38.97;;;14.80;;
49241;SDS011;35079;52.704;13.814;2022-12-18T10:45:11;33.65;;;14.95;;
49241;SDS011;35079;52.704;13.814;2022-12-18T10:47:50;40.63;;;14.30;;
49241;SDS011;35079;52.704;13.814;2022-12-18T10:50:18;33.53;;;13.30;;
49241;SDS011;35079;52.704;13.814;2022-12-18T10:52:59;35.75;;;14.15;;
49241;SDS011;35079;52.704;13.814;2022-12-18T10:55:27;37.58;;;14.43;;
49241;SDS011;35079;52.704;13.814;2022-12-18T11:01:13;31.83;;;13.43;;
49241;SDS011;35079;52.704;13.814;2022-12-18T11:06:20;37.47;;;14.43;;
49241;SDS011;35079;52.704;13.814;2022-12-18T11:11:31;36.33;;;13.07;;
49241;SDS011;35079;52.704;13.814;2022-12-18T11:16:33;38.85;;;15.65;;
49241;SDS011;35079;52.704;13.814;2022-12-18T11:22:21;41.55;;;16.33;;
49241;SDS011;35079;52.704;13.814;2022-12-18T11:24:58;42.00;;;14.68;;
49241;SDS011;35079;52.704;13.814;2022-12-18T11:27:24;40.20;;;13.80;;
49241;SDS011;35079;52.704;13.814;2022-12-18T11:29:51;36.28;;;13.70;;
49241;SDS011;35079;52.704;13.814;2022-12-18T18:51:38;49.45;;;20.35;;
49241;SDS011;35079;52.704;13.814;2022-12-18T19:01:05;48.65;;;19.13;;
49241;SDS011;35079;52.704;13.814;2022-12-18T19:04:01;50.78;;;19.27;;
49241;SDS011;35079;52.704;13.814;2022-12-18T19:06:41;48.30;;;19.45;;
49241;SDS011;35079;52.704;13.814;2022-12-18T19:13:19;50.58;;;20.73;;
49241;SDS011;35079;52.704;13.814;2022-12-18T19:19:02;48.80;;;19.20;;
49241;SDS011;35079;52.704;13.814;2022-12-18T19:34:48;47.83;;;18.83;;
49241;SDS011;35079;52.704;13.814;2022-12-18T20:04:11;48.67;;;19.30;;
49241;SDS011;35079;52.704;13.814;2022-12-18T20:07:14;45.50;;;18.63;;
49241;SDS011;35079;52.704;13.814;2022-12-18T20:09:40;51.90;;;18.83;;
49241;SDS011;35079;52.704;13.814;2022-12-18T20:18:05;47.97;;;19.85;;
49241;SDS011;35079;52.704;13.814;2022-12-18T20:27:22;46.03;;;18.45;;
49241;SDS011;35079;52.704;13.814;2022-12-18T20:30:09;47.00;;;18.80;;
49241;SDS011;35079;52.704;13.814;2022-12-18T20:32:45;49.78;;;18.23;;
49241;SDS011;35079;52.704;13.814;2022-12-18T20:46:01;49.63;;;19.73;;
49241;SDS011;35079;52.704;13.814;2022-12-18T21:03:54;55.60;;;21.42;;
49241;SDS011;35079;52.704;13.814;2022-12-18T21:26:56;56.05;;;21.65;;
49241;SDS011;35079;52.704;13.814;2022-12-18T21:29:47;54.47;;;21.08;;
49241;SDS011;35079;52.704;13.814;2022-12-18T21:43:11;53.78;;;20.88;;
